sensor_id;sensor_type;location;lat;lon;timestamp;P1;durP1;ratioP1;P2;durP2;ratioP2
43319;SDS011;28914;48.722;9.332;2024-01-30T00:00:18;9.70;;;9.00;;
43319;SDS011;28914;48.722;9.332;2024-01-30T00:05:37;12.40;;;11.30;;
43319;SDS011;28914;48.722;9.332;2024-01-30T00:10:57;9.83;;;8.80;;
43319;SDS011;28914;48.722;9.332;2024-01-30T00:16:19;11.27;;;10.17;;
43319;SDS011;28914;48.722;9.332;2024-01-30T00:21:45;10.70;;;9.67;;
43319;SDS011;28914;48.722;9.332;2024-01-30T00:27:05;11.47;;;10.37;;
43319;SDS011;28914;48.722;9.332;2024-01-30T00:32:23;10.73;;;9.63;;
43319;SDS011;28914;48.722;9.332;2024-01-30T00:37:43;9.83;;;8.93;;
43319;SDS011;28914;48.722;9.332;2024-01-30T00:43:02;10.17;;;9.23;;
43319;SDS011;28914;48.722;9.332;2024-01-30T00:48:22;11.27;;;10.30;;
43319;SDS011;28914;48.722;9.332;2024-01-30T00:53:41;10.53;;;9.53;;
43319;SDS011;28914;48.722;9.332;2024-01-30T00:59:00;10.23;;;8.80;;
43319;SDS011;28914;48.722;9.332;2024-01-30T01:04:19;12.70;;;11.43;;
43319;SDS011;28914;48.722;9.332;2024-01-30T01:09:39;9.90;;;9.00;;
43319;SDS011;28914;48.722;9.332;2024-01-30T01:14:59;9.47;;;8.57;;
43319;SDS011;28914;48.722;9.332;2024-01-30T01:20:18;11.67;;;10.47;;
43319;SDS011;28914;48.722;9.332;2024-01-30T01:25:37;10.37;;;9.30;;
43319;SDS011;28914;48.722;9.332;2024-01-30T01:30:57;11.20;;;10.10;;
43319;SDS011;28914;48.722;9.332;2024-01-30T01:36:19;11.13;;;10.03;;
43319;SDS011;28914;48.722;9.332;2024-01-30T01:41:39;10.37;;;9.37;;
43319;SDS011;28914;48.722;9.332;2024-01-30T01:46:58;11.27;;;10.17;;
43319;SDS011;28914;48.722;9.332;2024-01-30T01:52:17;10.80;;;9.70;;
43319;SDS011;28914;48.722;9.332;2024-01-30T01:57:36;10.10;;;9.20;;
43319;SDS011;28914;48.722;9.332;2024-01-30T02:02:56;9.83;;;8.87;;
43319;SDS011;28914;48.722;9.332;2024-01-30T02:08:16;10.60;;;8.97;;
43319;SDS011;28914;48.722;9.332;2024-01-30T02:13:35;8.83;;;8.03;;
43319;SDS011;28914;48.722;9.332;2024-01-30T02:18:55;9.43;;;8.43;;
43319;SDS011;28914;48.722;9.332;2024-01-30T02:24:14;8.47;;;7.67;;
43319;SDS011;28914;48.722;9.332;2024-01-30T02:29:33;8.80;;;8.00;;
43319;SDS011;28914;48.722;9.332;2024-01-30T02:34:52;9.80;;;8.80;;
43319;SDS011;28914;48.722;9.332;2024-01-30T02:40:12;10.03;;;9.00;;
43319;SDS011;28914;48.722;9.332;2024-01-30T02:45:31;8.47;;;7.57;;
43319;SDS011;28914;48.722;9.332;2024-01-30T02:50:50;8.67;;;7.87;;
43319;SDS011;28914;48.722;9.332;2024-01-30T02:56:10;9.80;;;8.90;;
43319;SDS011;28914;48.722;9.332;2024-01-30T03:01:29;9.87;;;8.97;;
43319;SDS011;28914;48.722;9.332;2024-01-30T03:06:48;9.10;;;8.00;;
43319;SDS011;28914;48.722;9.332;2024-01-30T03:12:07;9.13;;;8.30;;
43319;SDS011;28914;48.722;9.332;2024-01-30T03:17:26;9.17;;;8.20;;
43319;SDS011;28914;48.722;9.332;2024-01-30T03:22:46;9.20;;;8.33;;
43319;SDS011;28914;48.722;9.332;2024-01-30T03:28:05;9.97;;;9.07;;
43319;SDS011;28914;48.722;9.332;2024-01-30T03:33:25;8.63;;;7.73;;
43319;SDS011;28914;48.722;9.332;2024-01-30T03:38:44;8.87;;;8.17;;
43319;SDS011;28914;48.722;9.332;2024-01-30T03:44:03;10.53;;;9.50;;
43319;SDS011;28914;48.722;9.332;2024-01-30T03:49:22;8.90;;;8.20;;
43319;SDS011;28914;48.722;9.332;2024-01-30T03:54:41;8.63;;;7.90;;
43319;SDS011;28914;48.722;9.332;2024-01-30T04:00:01;8.93;;;8.10;;
43319;SDS011;28914;48.722;9.332;2024-01-30T04:05:20;9.60;;;8.70;;
43319;SDS011;28914;48.722;9.332;2024-01-30T04:10:39;8.83;;;8.07;;
43319;SDS011;28914;48.722;9.332;2024-01-30T04:16:01;9.13;;;8.33;;
43319;SDS011;28914;48.722;9.332;2024-01-30T04:21:21;9.53;;;8.63;;
43319;SDS011;28914;48.722;9.332;2024-01-30T04:26:41;10.67;;;9.67;;
43319;SDS011;28914;48.722;9.332;2024-01-30T04:32:00;9.70;;;8.70;;
43319;SDS011;28914;48.722;9.332;2024-01-30T04:37:19;10.80;;;9.60;;
43319;SDS011;28914;48.722;9.332;2024-01-30T04:42:38;10.43;;;9.63;;
43319;SDS011;28914;48.722;9.332;2024-01-30T04:47:58;10.53;;;9.53;;
43319;SDS011;28914;48.722;9.332;2024-01-30T04:53:18;9.63;;;8.53;;
43319;SDS011;28914;48.722;9.332;2024-01-30T04:58:37;9.27;;;8.30;;
43319;SDS011;28914;48.722;9.332;2024-01-30T05:03:57;9.73;;;8.73;;
43319;SDS011;28914;48.722;9.332;2024-01-30T05:09:16;10.17;;;9.37;;
43319;SDS011;28914;48.722;9.332;2024-01-30T05:14:35;10.60;;;9.60;;
43319;SDS011;28914;48.722;9.332;2024-01-30T05:19:54;10.40;;;9.40;;
43319;SDS011;28914;48.722;9.332;2024-01-30T05:25:13;14.00;;;12.70;;
43319;SDS011;28914;48.722;9.332;2024-01-30T05:30:32;11.00;;;10.00;;
43319;SDS011;28914;48.722;9.332;2024-01-30T05:35:51;10.40;;;9.40;;
43319;SDS011;28914;48.722;9.332;2024-01-30T05:41:13;10.80;;;9.70;;
43319;SDS011;28914;48.722;9.332;2024-01-30T05:46:33;10.17;;;9.20;;
43319;SDS011;28914;48.722;9.332;2024-01-30T05:51:52;12.13;;;10.93;;
43319;SDS011;28914;48.722;9.332;2024-01-30T05:57:12;11.30;;;10.23;;
43319;SDS011;28914;48.722;9.332;2024-01-30T06:08:46;10.30;;;9.30;;
43319;SDS011;28914;48.722;9.332;2024-01-30T06:14:06;10.43;;;9.50;;
43319;SDS011;28914;48.722;9.332;2024-01-30T06:19:24;9.33;;;8.43;;
43319;SDS011;28914;48.722;9.332;2024-01-30T06:24:44;11.37;;;10.27;;
43319;SDS011;28914;48.722;9.332;2024-01-30T06:30:04;10.60;;;9.60;;
43319;SDS011;28914;48.722;9.332;2024-01-30T06:35:23;10.93;;;9.83;;
43319;SDS011;28914;48.722;9.332;2024-01-30T06:40:42;10.67;;;9.67;;
43319;SDS011;28914;48.722;9.332;2024-01-30T06:46:02;10.87;;;9.77;;
43319;SDS011;28914;48.722;9.332;2024-01-30T06:51:21;11.53;;;10.43;;
43319;SDS011;28914;48.722;9.332;2024-01-30T06:56:40;10.63;;;9.63;;
43319;SDS011;28914;48.722;9.332;2024-01-30T07:02:00;11.30;;;10.30;;
43319;SDS011;28914;48.722;9.332;2024-01-30T07:07:19;10.73;;;8.97;;
43319;SDS011;28914;48.722;9.332;2024-01-30T07:12:38;9.33;;;8.43;;
43319;SDS011;28914;48.722;9.332;2024-01-30T07:17:58;9.17;;;8.37;;
43319;SDS011;28914;48.722;9.332;2024-01-30T07:23:17;9.83;;;9.00;;
43319;SDS011;28914;48.722;9.332;2024-01-30T07:28:36;9.43;;;8.60;;
43319;SDS011;28914;48.722;9.332;2024-01-30T07:33:56;13.37;;;12.10;;
43319;SDS011;28914;48.722;9.332;2024-01-30T07:39:15;17.23;;;15.10;;
43319;SDS011;28914;48.722;9.332;2024-01-30T07:44:34;18.80;;;16.90;;
43319;SDS011;28914;48.722;9.332;2024-01-30T07:49:54;23.77;;;18.77;;
43319;SDS011;28914;48.722;9.332;2024-01-30T07:55:13;16.77;;;14.97;;
43319;SDS011;28914;48.722;9.332;2024-01-30T08:00:32;14.80;;;13.50;;
43319;SDS011;28914;48.722;9.332;2024-01-30T08:05:51;11.63;;;10.63;;
43319;SDS011;28914;48.722;9.332;2024-01-30T08:11:11;11.90;;;10.70;;
43319;SDS011;28914;48.722;9.332;2024-01-30T08:16:31;13.63;;;11.10;;
43319;SDS011;28914;48.722;9.332;2024-01-30T08:21:50;11.87;;;10.77;;
43319;SDS011;28914;48.722;9.332;2024-01-30T08:27:09;13.43;;;12.03;;
43319;SDS011;28914;48.722;9.332;2024-01-30T08:32:28;12.00;;;10.80;;
43319;SDS011;28914;48.722;9.332;2024-01-30T08:37:47;11.97;;;10.10;;
43319;SDS011;28914;48.722;9.332;2024-01-30T08:43:07;12.83;;;11.43;;
43319;SDS011;28914;48.722;9.332;2024-01-30T08:48:27;11.00;;;9.90;;
43319;SDS011;28914;48.722;9.332;2024-01-30T08:53:46;12.63;;;11.37;;
43319;SDS011;28914;48.722;9.332;2024-01-30T08:59:06;16.40;;;14.80;;
43319;SDS011;28914;48.722;9.332;2024-01-30T09:04:25;17.37;;;15.17;;
43319;SDS011;28914;48.722;9.332;2024-01-30T09:09:44;12.23;;;10.90;;
43319;SDS011;28914;48.722;9.332;2024-01-30T09:15:03;11.27;;;10.07;;
43319;SDS011;28914;48.722;9.332;2024-01-30T09:20:23;11.37;;;10.40;;
43319;SDS011;28914;48.722;9.332;2024-01-30T09:25:42;11.77;;;10.57;;
43319;SDS011;28914;48.722;9.332;2024-01-30T09:31:01;11.67;;;10.47;;
43319;SDS011;28914;48.722;9.332;2024-01-30T09:36:21;12.03;;;10.77;;
43319;SDS011;28914;48.722;9.332;2024-01-30T09:41:44;13.10;;;11.70;;
43319;SDS011;28914;48.722;9.332;2024-01-30T09:47:07;10.87;;;9.77;;
43319;SDS011;28914;48.722;9.332;2024-01-30T09:52:27;11.20;;;10.10;;
43319;SDS011;28914;48.722;9.332;2024-01-30T09:57:46;12.50;;;11.30;;
43319;SDS011;28914;48.722;9.332;2024-01-30T10:03:05;11.50;;;10.50;;
43319;SDS011;28914;48.722;9.332;2024-01-30T10:08:25;10.53;;;9.57;;
43319;SDS011;28914;48.722;9.332;2024-01-30T10:13:45;9.83;;;8.83;;
43319;SDS011;28914;48.722;9.332;2024-01-30T10:19:04;10.43;;;9.43;;
43319;SDS011;28914;48.722;9.332;2024-01-30T10:24:24;11.37;;;10.20;;
43319;SDS011;28914;48.722;9.332;2024-01-30T10:29:48;9.90;;;9.00;;
43319;SDS011;28914;48.722;9.332;2024-01-30T10:35:07;8.90;;;8.10;;
43319;SDS011;28914;48.722;9.332;2024-01-30T10:40:27;8.63;;;7.83;;
43319;SDS011;28914;48.722;9.332;2024-01-30T10:45:48;7.90;;;7.20;;
43319;SDS011;28914;48.722;9.332;2024-01-30T10:51:10;7.90;;;7.20;;
43319;SDS011;28914;48.722;9.332;2024-01-30T10:56:30;8.33;;;7.53;;
43319;SDS011;28914;48.722;9.332;2024-01-30T11:01:51;8.90;;;7.73;;
43319;SDS011;28914;48.722;9.332;2024-01-30T11:07:17;9.37;;;8.53;;
43319;SDS011;28914;48.722;9.332;2024-01-30T11:12:37;11.33;;;10.20;;
43319;SDS011;28914;48.722;9.332;2024-01-30T11:18:02;10.47;;;9.30;;
43319;SDS011;28914;48.722;9.332;2024-01-30T11:23:22;9.03;;;8.13;;
43319;SDS011;28914;48.722;9.332;2024-01-30T11:28:41;8.27;;;7.47;;
43319;SDS011;28914;48.722;9.332;2024-01-30T11:34:01;8.67;;;7.47;;
43319;SDS011;28914;48.722;9.332;2024-01-30T11:39:20;10.07;;;9.10;;
43319;SDS011;28914;48.722;9.332;2024-01-30T11:44:39;9.37;;;7.80;;
43319;SDS011;28914;48.722;9.332;2024-01-30T11:49:58;12.03;;;8.27;;
43319;SDS011;28914;48.722;9.332;2024-01-30T11:55:17;7.50;;;6.80;;
43319;SDS011;28914;48.722;9.332;2024-01-30T12:00:37;8.17;;;7.40;;
43319;SDS011;28914;48.722;9.332;2024-01-30T12:05:56;9.23;;;8.30;;
43319;SDS011;28914;48.722;9.332;2024-01-30T12:11:17;8.77;;;7.97;;
43319;SDS011;28914;48.722;9.332;2024-01-30T12:16:36;9.87;;;8.87;;
43319;SDS011;28914;48.722;9.332;2024-01-30T12:21:56;11.27;;;9.23;;
43319;SDS011;28914;48.722;9.332;2024-01-30T12:27:17;8.50;;;7.70;;
43319;SDS011;28914;48.722;9.332;2024-01-30T12:32:37;9.87;;;8.37;;
43319;SDS011;28914;48.722;9.332;2024-01-30T12:37:58;10.97;;;9.27;;
43319;SDS011;28914;48.722;9.332;2024-01-30T12:43:17;13.10;;;9.40;;
43319;SDS011;28914;48.722;9.332;2024-01-30T12:48:36;10.37;;;8.33;;
43319;SDS011;28914;48.722;9.332;2024-01-30T12:53:56;9.20;;;8.30;;
43319;SDS011;28914;48.722;9.332;2024-01-30T12:59:15;8.90;;;8.00;;
43319;SDS011;28914;48.722;9.332;2024-01-30T13:04:35;9.47;;;8.47;;
43319;SDS011;28914;48.722;9.332;2024-01-30T13:09:54;9.47;;;8.43;;
43319;SDS011;28914;48.722;9.332;2024-01-30T13:15:14;9.30;;;8.40;;
43319;SDS011;28914;48.722;9.332;2024-01-30T13:20:33;10.33;;;9.27;;
43319;SDS011;28914;48.722;9.332;2024-01-30T13:25:52;8.83;;;7.90;;
43319;SDS011;28914;48.722;9.332;2024-01-30T13:31:12;13.83;;;9.90;;
43319;SDS011;28914;48.722;9.332;2024-01-30T13:36:35;10.30;;;9.17;;
43319;SDS011;28914;48.722;9.332;2024-01-30T13:41:54;9.60;;;8.70;;
43319;SDS011;28914;48.722;9.332;2024-01-30T13:47:13;11.40;;;9.30;;
43319;SDS011;28914;48.722;9.332;2024-01-30T13:52:33;10.97;;;9.90;;
43319;SDS011;28914;48.722;9.332;2024-01-30T13:57:52;9.70;;;8.77;;
43319;SDS011;28914;48.722;9.332;2024-01-30T14:03:11;8.80;;;7.90;;
43319;SDS011;28914;48.722;9.332;2024-01-30T14:08:31;10.97;;;9.20;;
43319;SDS011;28914;48.722;9.332;2024-01-30T14:13:51;12.70;;;9.57;;
43319;SDS011;28914;48.722;9.332;2024-01-30T14:19:11;12.00;;;10.10;;
43319;SDS011;28914;48.722;9.332;2024-01-30T14:24:30;11.13;;;9.20;;
43319;SDS011;28914;48.722;9.332;2024-01-30T14:29:49;10.57;;;9.40;;
43319;SDS011;28914;48.722;9.332;2024-01-30T14:35:08;9.37;;;8.50;;
43319;SDS011;28914;48.722;9.332;2024-01-30T14:40:28;12.73;;;8.10;;
43319;SDS011;28914;48.722;9.332;2024-01-30T14:45:47;10.40;;;7.57;;
43319;SDS011;28914;48.722;9.332;2024-01-30T14:51:08;11.17;;;7.47;;
43319;SDS011;28914;48.722;9.332;2024-01-30T14:56:27;10.60;;;7.20;;
43319;SDS011;28914;48.722;9.332;2024-01-30T15:01:47;9.13;;;7.50;;
43319;SDS011;28914;48.722;9.332;2024-01-30T15:07:06;8.97;;;6.90;;
43319;SDS011;28914;48.722;9.332;2024-01-30T15:12:26;9.33;;;8.40;;
43319;SDS011;28914;48.722;9.332;2024-01-30T15:17:45;8.30;;;7.50;;
43319;SDS011;28914;48.722;9.332;2024-01-30T15:23:05;8.13;;;7.13;;
43319;SDS011;28914;48.722;9.332;2024-01-30T15:28:39;7.60;;;6.90;;
43319;SDS011;28914;48.722;9.332;2024-01-30T15:33:58;8.00;;;7.07;;
43319;SDS011;28914;48.722;9.332;2024-01-30T15:39:17;8.63;;;7.70;;
43319;SDS011;28914;48.722;9.332;2024-01-30T15:44:37;7.27;;;6.53;;
43319;SDS011;28914;48.722;9.332;2024-01-30T15:49:56;6.90;;;6.30;;
43319;SDS011;28914;48.722;9.332;2024-01-30T15:55:15;8.77;;;7.00;;
43319;SDS011;28914;48.722;9.332;2024-01-30T16:00:34;8.10;;;7.30;;
43319;SDS011;28914;48.722;9.332;2024-01-30T16:05:53;6.83;;;6.23;;
43319;SDS011;28914;48.722;9.332;2024-01-30T16:11:13;7.70;;;7.00;;
43319;SDS011;28914;48.722;9.332;2024-01-30T16:16:36;8.50;;;7.70;;
43319;SDS011;28914;48.722;9.332;2024-01-30T16:21:55;8.57;;;6.60;;
43319;SDS011;28914;48.722;9.332;2024-01-30T16:27:14;10.03;;;6.70;;
43319;SDS011;28914;48.722;9.332;2024-01-30T16:32:33;8.23;;;7.43;;
43319;SDS011;28914;48.722;9.332;2024-01-30T16:37:52;7.93;;;6.73;;
43319;SDS011;28914;48.722;9.332;2024-01-30T16:43:12;8.30;;;7.50;;
43319;SDS011;28914;48.722;9.332;2024-01-30T16:48:31;8.20;;;7.00;;
43319;SDS011;28914;48.722;9.332;2024-01-30T16:53:50;7.20;;;6.43;;
43319;SDS011;28914;48.722;9.332;2024-01-30T16:59:09;7.30;;;6.50;;
43319;SDS011;28914;48.722;9.332;2024-01-30T17:04:29;7.10;;;6.50;;
43319;SDS011;28914;48.722;9.332;2024-01-30T17:09:51;9.30;;;8.37;;
43319;SDS011;28914;48.722;9.332;2024-01-30T17:15:12;24.13;;;19.77;;
43319;SDS011;28914;48.722;9.332;2024-01-30T17:20:31;15.17;;;13.57;;
43319;SDS011;28914;48.722;9.332;2024-01-30T17:25:50;12.87;;;11.57;;
43319;SDS011;28914;48.722;9.332;2024-01-30T17:31:09;12.50;;;11.10;;
43319;SDS011;28914;48.722;9.332;2024-01-30T17:36:29;11.80;;;10.23;;
43319;SDS011;28914;48.722;9.332;2024-01-30T17:41:48;15.53;;;13.47;;
43319;SDS011;28914;48.722;9.332;2024-01-30T17:47:07;11.83;;;10.27;;
43319;SDS011;28914;48.722;9.332;2024-01-30T17:52:26;11.90;;;10.70;;
43319;SDS011;28914;48.722;9.332;2024-01-30T17:57:45;11.13;;;9.50;;
43319;SDS011;28914;48.722;9.332;2024-01-30T18:03:05;14.57;;;13.07;;
43319;SDS011;28914;48.722;9.332;2024-01-30T18:08:24;15.80;;;13.63;;
43319;SDS011;28914;48.722;9.332;2024-01-30T18:13:43;14.07;;;12.67;;
43319;SDS011;28914;48.722;9.332;2024-01-30T18:19:02;18.73;;;12.90;;
43319;SDS011;28914;48.722;9.332;2024-01-30T18:24:22;13.47;;;12.13;;
43319;SDS011;28914;48.722;9.332;2024-01-30T18:29:43;13.63;;;12.23;;
43319;SDS011;28914;48.722;9.332;2024-01-30T18:35:02;26.60;;;21.23;;
43319;SDS011;28914;48.722;9.332;2024-01-30T18:40:22;23.20;;;20.73;;
43319;SDS011;28914;48.722;9.332;2024-01-30T18:45:41;25.60;;;18.33;;
43319;SDS011;28914;48.722;9.332;2024-01-30T18:51:01;22.93;;;19.27;;
43319;SDS011;28914;48.722;9.332;2024-01-30T18:56:20;17.83;;;15.97;;
43319;SDS011;28914;48.722;9.332;2024-01-30T19:01:40;20.00;;;16.00;;
43319;SDS011;28914;48.722;9.332;2024-01-30T19:06:59;15.33;;;13.83;;
43319;SDS011;28914;48.722;9.332;2024-01-30T19:12:18;14.87;;;13.30;;
43319;SDS011;28914;48.722;9.332;2024-01-30T19:17:37;14.43;;;12.97;;
43319;SDS011;28914;48.722;9.332;2024-01-30T19:22:57;19.83;;;16.07;;
43319;SDS011;28914;48.722;9.332;2024-01-30T19:28:16;18.63;;;15.00;;
43319;SDS011;28914;48.722;9.332;2024-01-30T19:33:35;16.10;;;14.47;;
43319;SDS011;28914;48.722;9.332;2024-01-30T19:38:55;15.97;;;14.20;;
43319;SDS011;28914;48.722;9.332;2024-01-30T19:44:17;16.17;;;14.43;;
43319;SDS011;28914;48.722;9.332;2024-01-30T19:49:36;30.63;;;23.13;;
43319;SDS011;28914;48.722;9.332;2024-01-30T19:54:58;16.43;;;14.20;;
43319;SDS011;28914;48.722;9.332;2024-01-30T20:00:17;13.40;;;12.00;;
43319;SDS011;28914;48.722;9.332;2024-01-30T20:05:36;13.27;;;12.00;;
43319;SDS011;28914;48.722;9.332;2024-01-30T20:10:55;12.77;;;11.47;;
43319;SDS011;28914;48.722;9.332;2024-01-30T20:16:14;12.97;;;11.57;;
43319;SDS011;28914;48.722;9.332;2024-01-30T20:21:34;11.90;;;10.20;;
43319;SDS011;28914;48.722;9.332;2024-01-30T20:26:56;13.30;;;11.50;;
43319;SDS011;28914;48.722;9.332;2024-01-30T20:32:15;13.90;;;11.53;;
43319;SDS011;28914;48.722;9.332;2024-01-30T20:37:35;10.77;;;9.77;;
43319;SDS011;28914;48.722;9.332;2024-01-30T20:42:55;11.07;;;10.03;;
43319;SDS011;28914;48.722;9.332;2024-01-30T20:48:15;10.53;;;9.53;;
43319;SDS011;28914;48.722;9.332;2024-01-30T20:53:36;12.13;;;11.13;;
43319;SDS011;28914;48.722;9.332;2024-01-30T20:58:55;11.43;;;10.13;;
43319;SDS011;28914;48.722;9.332;2024-01-30T21:04:14;11.33;;;10.23;;
43319;SDS011;28914;48.722;9.332;2024-01-30T21:09:34;10.43;;;9.33;;
43319;SDS011;28914;48.722;9.332;2024-01-30T21:14:52;12.33;;;10.83;;
43319;SDS011;28914;48.722;9.332;2024-01-30T21:20:12;13.07;;;11.67;;
43319;SDS011;28914;48.722;9.332;2024-01-30T21:25:32;14.07;;;12.23;;
43319;SDS011;28914;48.722;9.332;2024-01-30T21:30:51;12.30;;;11.10;;
43319;SDS011;28914;48.722;9.332;2024-01-30T21:36:10;14.47;;;12.97;;
43319;SDS011;28914;48.722;9.332;2024-01-30T21:41:29;15.80;;;12.50;;
43319;SDS011;28914;48.722;9.332;2024-01-30T21:46:48;14.37;;;12.97;;
43319;SDS011;28914;48.722;9.332;2024-01-30T21:52:08;15.97;;;12.70;;
43319;SDS011;28914;48.722;9.332;2024-01-30T21:57:27;13.93;;;12.43;;
43319;SDS011;28914;48.722;9.332;2024-01-30T22:02:46;18.13;;;16.20;;
43319;SDS011;28914;48.722;9.332;2024-01-30T22:08:05;21.33;;;19.00;;
43319;SDS011;28914;48.722;9.332;2024-01-30T22:13:25;20.93;;;18.13;;
43319;SDS011;28914;48.722;9.332;2024-01-30T22:18:44;18.63;;;16.83;;
43319;SDS011;28914;48.722;9.332;2024-01-30T22:24:03;15.30;;;13.80;;
43319;SDS011;28914;48.722;9.332;2024-01-30T22:29:23;16.60;;;14.97;;
43319;SDS011;28914;48.722;9.332;2024-01-30T22:34:42;13.93;;;12.67;;
43319;SDS011;28914;48.722;9.332;2024-01-30T22:40:02;13.33;;;12.13;;
43319;SDS011;28914;48.722;9.332;2024-01-30T22:45:22;13.63;;;12.33;;
43319;SDS011;28914;48.722;9.332;2024-01-30T22:50:41;17.47;;;14.50;;
43319;SDS011;28914;48.722;9.332;2024-01-30T22:56:01;18.53;;;16.67;;
43319;SDS011;28914;48.722;9.332;2024-01-30T23:01:20;20.90;;;17.17;;
43319;SDS011;28914;48.722;9.332;2024-01-30T23:06:40;17.23;;;15.50;;
43319;SDS011;28914;48.722;9.332;2024-01-30T23:11:59;18.53;;;16.50;;
43319;SDS011;28914;48.722;9.332;2024-01-30T23:17:18;20.37;;;18.33;;
43319;SDS011;28914;48.722;9.332;2024-01-30T23:22:38;19.20;;;16.83;;
43319;SDS011;28914;48.722;9.332;2024-01-30T23:27:57;19.17;;;17.27;;
43319;SDS011;28914;48.722;9.332;2024-01-30T23:33:16;18.63;;;16.93;;
43319;SDS011;28914;48.722;9.332;2024-01-30T23:38:35;18.83;;;15.40;;
43319;SDS011;28914;48.722;9.332;2024-01-30T23:43:54;16.03;;;14.33;;
43319;SDS011;28914;48.722;9.332;2024-01-30T23:49:15;17.77;;;15.97;;
43319;SDS011;28914;48.722;9.332;2024-01-30T23:54:34;18.77;;;16.77;;
43319;SDS011;28914;48.722;9.332;2024-01-30T23:59:53;17.27;;;15.67;;
